createdAt,value
2019-06-07T00:00:38.625Z,87.89
2019-06-07T00:02:23.904Z,87.75
2019-06-07T00:04:03.295Z,87.99
2019-06-07T00:05:48.006Z,87.96
2019-06-07T00:07:36.089Z,88.25
2019-06-07T00:09:22.427Z,87.8
2019-06-07T00:11:02.325Z,88.02
2019-06-07T00:12:43.980Z,88.09
2019-06-07T00:14:23.413Z,88.29
2019-06-07T00:16:02.946Z,88.65
2019-06-07T00:17:42.556Z,88.7
2019-06-07T00:19:22.090Z,88.73
2019-06-07T00:21:01.574Z,88.96
2019-06-07T00:22:41.164Z,88.84
2019-06-07T00:24:22.910Z,89.05
2019-06-07T00:26:02.617Z,89.01
2019-06-07T00:27:42.034Z,89.07
2019-06-07T00:29:23.133Z,89.24
2019-06-07T00:31:02.967Z,89.31
2019-06-07T00:32:42.361Z,89.39
2019-06-07T00:34:25.060Z,89.63
2019-06-07T00:36:04.679Z,89.72
2019-06-07T00:37:46.400Z,89.66
2019-06-07T00:39:27.055Z,89.6
2019-06-07T00:41:06.609Z,89.54
2019-06-07T00:42:46.976Z,89.51
2019-06-07T00:44:26.937Z,89.52
2019-06-07T00:46:06.128Z,89.38
2019-06-07T00:47:50.530Z,89.38
2019-06-07T00:51:26.986Z,89.45
2019-06-07T00:53:35.399Z,88.99
2019-06-07T00:55:18.023Z,88.97
2019-06-07T00:57:05.182Z,88.96
2019-06-07T00:58:44.967Z,88.96
2019-06-07T01:00:53.639Z,88.92
2019-06-07T01:02:33.446Z,89.15
2019-06-07T01:04:17.336Z,89.27
2019-06-07T01:06:02.877Z,89.59
2019-06-07T01:07:42.315Z,89.6
2019-06-07T01:09:25.484Z,89.61
2019-06-07T01:11:04.966Z,89.58
2019-06-07T01:12:44.510Z,89.67
2019-06-07T01:14:28.279Z,89.66
2019-06-07T01:16:08.183Z,89.62
2019-06-07T01:18:38.910Z,89.48
2019-06-07T01:20:28.467Z,89.49
2019-06-07T01:22:08.000Z,89.54
2019-06-07T01:24:12.207Z,89.47
2019-06-07T01:25:53.594Z,89.77
2019-06-07T01:27:33.095Z,89.63
2019-06-07T01:29:12.570Z,89.66
2019-06-07T01:31:01.733Z,89.93
2019-06-07T01:32:41.093Z,89.77
2019-06-07T01:34:25.631Z,89.62
2019-06-07T01:36:07.122Z,89.76
2019-06-07T01:37:46.754Z,89.95
2019-06-07T01:39:31.956Z,90.22
2019-06-07T01:41:11.540Z,90.24
2019-06-07T01:42:51.089Z,90.17
2019-06-07T01:44:32.900Z,90.35
2019-06-07T01:46:12.485Z,90.18
2019-06-07T01:47:51.761Z,90.12
2019-06-07T01:51:13.977Z,90.32
2019-06-07T01:52:56.175Z,90.18
2019-06-07T01:55:00.247Z,90.09
2019-06-07T01:56:46.331Z,90.08
2019-06-07T01:58:30.372Z,90.26
2019-06-07T02:00:09.993Z,90.44
2019-06-07T02:01:51.011Z,90.21
2019-06-07T02:03:34.895Z,90.31
2019-06-07T02:05:14.466Z,90.13
2019-06-07T02:06:56.073Z,90.37
2019-06-07T02:08:36.251Z,90.57
2019-06-07T02:10:15.770Z,90.37
2019-06-07T02:12:02.438Z,90.25
2019-06-07T02:14:22.922Z,90.29
2019-06-07T02:16:10.159Z,90.67
2019-06-07T02:17:49.934Z,90.95
2019-06-07T02:19:34.393Z,91.03
2019-06-07T02:21:13.859Z,91.05
2019-06-07T02:22:53.385Z,91.25
2019-06-07T02:24:36.904Z,91.37
2019-06-07T02:26:16.505Z,91.5
2019-06-07T02:30:46.899Z,92.12
2019-06-07T02:32:38.847Z,91.76
2019-06-07T02:34:18.449Z,92.04
2019-06-07T02:36:03.467Z,92.01
2019-06-07T02:37:43.134Z,92.04
2019-06-07T02:39:28.631Z,92.15
2019-06-07T02:41:17.506Z,92.48
2019-06-07T02:43:02.232Z,92.57
2019-06-07T02:44:41.748Z,92.66
2019-06-07T02:46:39.676Z,92.77
2019-06-07T02:48:40.546Z,92.96
2019-06-07T02:50:32.318Z,93.61
2019-06-07T02:52:17.032Z,93.45
2019-06-07T02:53:56.836Z,93.57
2019-06-07T02:56:38.899Z,93.66
2019-06-07T02:58:43.456Z,93.56
2019-06-07T03:00:59.825Z,93.64
2019-06-07T03:02:57.844Z,93.54
2019-06-07T03:04:44.847Z,92.97
2019-06-07T03:06:27.040Z,93.11
2019-06-07T03:08:22.793Z,93.22
2019-06-07T03:10:04.775Z,92.98
2019-06-07T03:11:44.309Z,92.84
2019-06-07T03:13:23.849Z,92.99
2019-06-07T03:15:10.216Z,92.75
2019-06-07T03:17:27.031Z,92.46
2019-06-07T03:19:13.026Z,93.25
2019-06-07T03:21:06.683Z,93.08
2019-06-07T03:22:46.209Z,93.17
2019-06-07T03:24:29.570Z,93.04
2019-06-07T03:26:18.193Z,93.3
2019-06-07T03:27:57.815Z,93.17
2019-06-07T03:29:41.146Z,93.27
2019-06-07T03:31:22.431Z,93.76
2019-06-07T03:33:07.697Z,93.53
2019-06-07T03:34:47.333Z,93.64
2019-06-07T03:36:27.755Z,93.54
2019-06-07T03:38:08.068Z,93.64
2019-06-07T03:39:47.675Z,93.64
2019-06-07T03:41:34.244Z,93.78
2019-06-07T03:43:48.006Z,93.76
2019-06-07T03:45:30.688Z,94.16
2019-06-07T03:47:17.407Z,93.68
2019-06-07T03:48:57.079Z,93.75
2019-06-07T03:50:42.213Z,93.93
2019-06-07T03:52:22.274Z,93.8
2019-06-07T03:54:01.835Z,93.83
2019-06-07T03:55:43.102Z,93.98
2019-06-07T03:57:22.757Z,93.89
2019-06-07T03:59:05.426Z,93.97
2019-06-07T04:00:45.227Z,93.99
2019-06-07T04:02:24.661Z,94.11
2019-06-07T04:04:07.277Z,94.23
2019-06-07T04:05:48.787Z,94.46
2019-06-07T04:07:43.384Z,94.94
2019-06-07T04:09:23.305Z,94.88
2019-06-07T04:11:05.434Z,94.94
2019-06-07T04:12:46.008Z,95.39
2019-06-07T04:14:25.518Z,95.59
2019-06-07T04:16:09.335Z,95.59
2019-06-07T04:18:04.089Z,95.68
2019-06-07T04:19:45.152Z,95.77
2019-06-07T04:21:24.831Z,95.88
2019-06-07T04:23:28.578Z,96.04
2019-06-07T04:25:26.078Z,96.07
2019-06-07T04:27:11.037Z,96.22
2019-06-07T04:29:47.776Z,95.91
2019-06-07T04:31:44.136Z,96.24
2019-06-07T04:33:23.814Z,96.33
2019-06-07T04:35:05.193Z,96.14
2019-06-07T04:36:59.537Z,96.33
2019-06-07T04:38:43.795Z,96.73
2019-06-07T04:40:23.174Z,96.78
2019-06-07T04:42:04.317Z,96.6
2019-06-07T04:43:44.049Z,96.8
2019-06-07T04:45:41.611Z,96.66
2019-06-07T04:47:39.530Z,96.22
2019-06-07T04:49:21.744Z,95.72
2019-06-07T04:51:01.465Z,95.63
2019-06-07T04:52:48.085Z,95.71
2019-06-07T04:54:26.979Z,95.52
2019-06-07T04:56:10.697Z,95.34
2019-06-07T04:57:50.755Z,95.73
2019-06-07T05:02:43.361Z,95.89
2019-06-07T05:04:23.384Z,95.44
2019-06-07T05:06:02.975Z,95.11
2019-06-07T05:12:55.692Z,94.49
2019-06-07T05:14:36.650Z,94.49
2019-06-07T05:16:23.010Z,94.09
2019-06-07T05:18:03.615Z,93.85
2019-06-07T05:19:46.030Z,93.8
2019-06-07T05:21:25.659Z,92.92
2019-06-07T05:24:10.463Z,93.28
2019-06-07T05:25:56.700Z,93.49
2019-06-07T05:27:44.477Z,94.16
2019-06-07T05:29:26.847Z,93.94
2019-06-07T05:31:09.715Z,93.72
2019-06-07T05:32:49.495Z,93.14
2019-06-07T05:34:32.019Z,93.04
2019-06-07T05:36:18.766Z,92.92
2019-06-07T05:38:02.017Z,93.3
2019-06-07T05:39:46.346Z,92.8
2019-06-07T05:41:26.200Z,91.59
2019-06-07T05:43:05.761Z,91.26
2019-06-07T05:44:47.945Z,91.2
2019-06-07T05:46:28.617Z,90.97
2019-06-07T05:48:14.229Z,91.03
2019-06-07T05:49:53.737Z,90.41
2019-06-07T05:51:34.721Z,90.89
2019-06-07T05:53:20.966Z,89.91
2019-06-07T05:55:00.439Z,89.3
2019-06-07T05:56:43.176Z,89.04
2019-06-07T05:58:25.170Z,88.92
2019-06-07T06:00:11.759Z,88.83
2019-06-07T06:02:21.671Z,88.54
2019-06-07T06:04:08.497Z,87.29
2019-06-07T06:05:56.379Z,87.83
2019-06-07T06:07:44.505Z,88.37
2019-06-07T06:09:29.706Z,88.62
2019-06-07T06:11:12.874Z,87.99
2019-06-07T06:12:53.914Z,88.06
2019-06-07T06:14:35.258Z,88.37
2019-06-07T06:16:27.340Z,86.86
2019-06-07T06:18:16.694Z,86.58
2019-06-07T06:19:56.720Z,86.39
2019-06-07T06:21:38.508Z,85.9
2019-06-07T06:23:22.962Z,85.38
2019-06-07T06:25:34.206Z,86.03
2019-06-07T06:29:52.669Z,85.73
2019-06-07T06:31:33.938Z,86
2019-06-07T06:33:49.222Z,85.7
2019-06-07T06:35:30.475Z,85.45
2019-06-07T06:37:12.495Z,85.01
2019-06-07T06:38:57.070Z,84.45
2019-06-07T06:40:38.833Z,84.39
2019-06-07T06:42:50.590Z,84.36
2019-06-07T06:44:31.906Z,84.61
2019-06-07T06:46:12.870Z,83.82
2019-06-07T06:48:29.942Z,83.77
2019-06-07T06:50:10.861Z,83.55
2019-06-07T06:51:55.459Z,82.3
2019-06-07T06:53:36.396Z,82.62
2019-06-07T06:55:21.581Z,82.42
2019-06-07T06:57:23.643Z,82.99
2019-06-07T06:59:43.159Z,81.89
2019-06-07T07:01:33.655Z,82.55
2019-06-07T07:04:10.995Z,82.18
2019-06-07T07:05:56.214Z,82.05
2019-06-07T07:08:09.211Z,82.01
2019-06-07T07:09:59.216Z,81.78
2019-06-07T07:13:59.206Z,81.68
2019-06-07T07:15:38.777Z,81.99
2019-06-07T07:18:03.395Z,81.63
2019-06-07T07:19:55.321Z,81.2
2019-06-07T07:21:37.098Z,81.48
2019-06-07T07:23:23.578Z,81.31
2019-06-07T07:25:07.805Z,80.48
2019-06-07T07:26:58.192Z,79.46
2019-06-07T07:28:42.969Z,79.43
2019-06-07T07:30:39.242Z,79.08
2019-06-07T07:32:23.585Z,79.04
2019-06-07T07:34:37.120Z,77.85
2019-06-07T07:36:44.720Z,77.61
2019-06-07T07:38:45.501Z,77.6
2019-06-07T07:41:15.070Z,77.62
2019-06-07T07:43:02.498Z,77.23
2019-06-07T07:44:44.555Z,76.68
2019-06-07T07:48:19.761Z,76.8
2019-06-07T07:50:01.738Z,76.18
2019-06-07T07:51:42.425Z,75.56
2019-06-07T07:53:23.967Z,75.86
2019-06-07T07:55:32.333Z,75.38
2019-06-07T07:57:13.208Z,75.55
2019-06-07T07:59:03.462Z,75.9
2019-06-07T08:01:05.579Z,76.15
2019-06-07T08:03:04.263Z,75.14
2019-06-07T08:05:23.104Z,74.75
2019-06-07T08:07:23.305Z,75.12
2019-06-07T08:09:10.690Z,75.37
2019-06-07T08:15:05.572Z,74.07
2019-06-07T08:16:49.308Z,74.64
2019-06-07T08:18:32.906Z,74.38
2019-06-07T08:20:12.476Z,74.15
2019-06-07T08:21:53.045Z,74.35
2019-06-07T08:23:37.843Z,74.22
2019-06-07T08:25:17.516Z,74.14
2019-06-07T08:27:27.179Z,73.36
2019-06-07T08:29:13.345Z,73.03
2019-06-07T08:31:06.628Z,72.9
2019-06-07T08:32:50.941Z,73.01
2019-06-07T08:34:32.812Z,73.24
2019-06-07T08:38:44.930Z,73.08
2019-06-07T08:40:34.304Z,72.7
2019-06-07T08:42:36.413Z,72.59
2019-06-07T08:45:03.517Z,72.6
2019-06-07T08:46:43.827Z,72.38
2019-06-07T08:48:30.320Z,72.79
2019-06-07T08:50:09.958Z,73.06
2019-06-07T08:51:52.477Z,72.32
2019-06-07T08:54:23.515Z,71.82
2019-06-07T08:56:13.108Z,71.13
2019-06-07T08:58:02.172Z,71.3
2019-06-07T08:59:46.886Z,70.69
2019-06-07T09:01:29.120Z,71.19
2019-06-07T09:03:09.243Z,71.03
2019-06-07T09:04:49.137Z,70.97
2019-06-07T09:07:14.561Z,71.03
2019-06-07T09:09:06.732Z,71.38
2019-06-07T09:10:46.151Z,71.1
2019-06-07T09:12:25.691Z,71.01
2019-06-07T09:14:10.998Z,70.56
2019-06-07T09:15:50.407Z,70.2
2019-06-07T09:18:42.653Z,69.37
2019-06-07T09:20:38.778Z,74.87
2019-06-07T09:22:18.432Z,71.23
2019-06-07T09:24:06.905Z,69.56
2019-06-07T09:26:10.421Z,73.64
2019-06-07T09:28:19.295Z,69.1
2019-06-07T09:30:12.497Z,72.64
2019-06-07T09:32:05.581Z,67.65
2019-06-07T09:35:56.142Z,67.43
2019-06-07T09:38:25.361Z,66.24
2019-06-07T09:40:27.828Z,69.79
2019-06-07T09:42:15.038Z,69.61
2019-06-07T09:44:23.586Z,69.63
2019-06-07T09:46:15.920Z,69.11
2019-06-07T09:47:57.038Z,70.01
2019-06-07T09:49:50.203Z,65.75
2019-06-07T09:51:34.492Z,68.58
2019-06-07T09:53:24.497Z,68.54
2019-06-07T09:55:23.412Z,69.39
2019-06-07T09:57:18.736Z,70.02
2019-06-07T09:59:03.615Z,65.04
2019-06-07T10:00:50.968Z,67.34
2019-06-07T10:02:30.656Z,68.11
2019-06-07T10:04:31.900Z,68.2
2019-06-07T10:06:19.258Z,68.91
2019-06-07T10:08:40.935Z,69.26
2019-06-07T10:12:10.732Z,66.31
2019-06-07T10:13:51.024Z,65.3
2019-06-07T10:15:32.846Z,65.27
2019-06-07T10:17:15.223Z,65.98
2019-06-07T10:18:56.308Z,66.37
2019-06-07T10:20:38.532Z,65.5
2019-06-07T10:22:18.963Z,63.89
2019-06-07T10:23:59.259Z,63.49
2019-06-07T10:25:40.988Z,63.07
2019-06-07T10:27:25.377Z,62.04
2019-06-07T10:29:09.020Z,62.84
2019-06-07T10:30:52.411Z,62.44
2019-06-07T10:32:33.295Z,62.05
2019-06-07T10:34:15.265Z,62.3
2019-06-07T10:35:56.278Z,62.12
2019-06-07T10:37:37.105Z,62.92
2019-06-07T10:39:18.845Z,62.69
2019-06-07T10:41:00.751Z,61.36
2019-06-07T10:42:41.399Z,59.48
2019-06-07T10:44:20.921Z,58.13
2019-06-07T10:46:01.431Z,58.18
2019-06-07T10:47:42.115Z,58.18
2019-06-07T10:49:21.795Z,58.93
2019-06-07T10:51:02.170Z,59.41
2019-06-07T10:52:42.882Z,60.63
2019-06-07T10:54:31.139Z,61.7
2019-06-07T10:56:13.308Z,61.93
2019-06-07T10:57:53.750Z,62.34
2019-06-07T10:59:34.906Z,62.72
2019-06-07T11:02:58.665Z,63.21
2019-06-07T11:04:40.167Z,63.6
2019-06-07T11:06:21.263Z,64.34
2019-06-07T11:08:03.836Z,64.55
2019-06-07T11:09:45.083Z,64.98
2019-06-07T11:11:51.383Z,62.81
2019-06-07T11:13:32.590Z,63.21
2019-06-07T11:16:59.804Z,62.69
2019-06-07T11:18:41.853Z,63.83
2019-06-07T11:20:22.761Z,62.77
2019-06-07T11:22:03.078Z,61.24
2019-06-07T11:23:44.345Z,61.31
2019-06-07T11:25:23.886Z,60.09
2019-06-07T11:27:03.466Z,59.71
2019-06-07T11:28:47.275Z,58.7
2019-06-07T11:30:27.014Z,59.48
2019-06-07T11:32:08.366Z,59.25
2019-06-07T11:33:48.928Z,59.57
2019-06-07T11:35:28.490Z,59.32
2019-06-07T11:37:11.580Z,60.46
2019-06-07T11:38:55.413Z,60.22
2019-06-07T11:40:37.555Z,59.55
2019-06-07T11:42:20.009Z,60.06
2019-06-07T11:43:59.916Z,60.05
2019-06-07T11:45:39.602Z,59.79
2019-06-07T11:47:19.551Z,59.57
2019-06-07T11:48:58.909Z,57.9
2019-06-07T11:50:38.501Z,57.45
2019-06-07T11:52:19.595Z,57.74
2019-06-07T11:53:58.997Z,57.37
2019-06-07T11:55:38.741Z,57.28
2019-06-07T11:57:19.044Z,56.67
2019-06-07T11:58:58.798Z,56.55
2019-06-07T12:00:37.729Z,56.11
2019-06-07T12:02:17.644Z,56.93
2019-06-07T12:04:00.447Z,58.65
2019-06-07T12:05:40.225Z,59.31
2019-06-07T12:07:21.665Z,58.49
2019-06-07T12:09:01.147Z,59.56
2019-06-07T12:10:44.363Z,60.21
2019-06-07T12:12:23.901Z,61.02
2019-06-07T12:14:03.418Z,60.58
2019-06-07T12:15:43.076Z,60.83
2019-06-07T12:17:25.504Z,60.79
2019-06-07T12:19:05.015Z,60.05
2019-06-07T12:20:46.691Z,59.61
2019-06-07T12:24:08.350Z,59.66
2019-06-07T12:25:48.738Z,58.8
2019-06-07T12:27:28.168Z,57.46
2019-06-07T12:29:07.611Z,56.98
2019-06-07T12:30:48.694Z,56.31
2019-06-07T12:32:31.620Z,55.42
2019-06-07T12:34:11.274Z,56.17
2019-06-07T12:35:56.187Z,56.5
2019-06-07T12:37:46.024Z,56.65
2019-06-07T12:39:25.639Z,56.92
2019-06-07T12:41:05.222Z,58.06
2019-06-07T12:42:44.728Z,56.97
2019-06-07T12:46:03.905Z,56.28
2019-06-07T12:47:43.633Z,55.69
2019-06-07T12:49:24.690Z,54.46
2019-06-07T12:51:04.313Z,55.52
2019-06-07T12:52:43.832Z,56.42
2019-06-07T12:54:24.041Z,57.49
2019-06-07T12:56:05.292Z,56.89
2019-06-07T12:57:44.773Z,55.97
2019-06-07T12:59:24.392Z,55.62
2019-06-07T13:01:03.452Z,55.67
2019-06-07T13:02:42.889Z,55.97
2019-06-07T13:04:22.554Z,56.01
2019-06-07T13:06:04.216Z,56.31
2019-06-07T13:07:43.841Z,56.79
2019-06-07T13:09:23.943Z,55.68
2019-06-07T13:11:24.009Z,54.83
2019-06-07T13:13:15.751Z,53.56
2019-06-07T13:15:07.418Z,54.06
2019-06-07T13:16:47.002Z,54.21
2019-06-07T13:18:28.408Z,54.16
2019-06-07T13:20:08.166Z,53.07
2019-06-07T13:21:47.678Z,53.41
2019-06-07T13:23:27.010Z,54.75
2019-06-07T13:25:07.315Z,55.61
2019-06-07T13:26:46.883Z,55.05
2019-06-07T13:28:26.753Z,54.82
2019-06-07T13:30:12.615Z,55.75
2019-06-07T13:31:53.327Z,56.55
2019-06-07T13:33:39.779Z,56.81
2019-06-07T13:35:22.347Z,57.25
2019-06-07T13:37:06.182Z,57.28
2019-06-07T13:38:47.237Z,56.44
2019-06-07T13:40:26.958Z,55.42
2019-06-07T13:42:06.601Z,55.08
2019-06-07T13:43:46.409Z,55.89
2019-06-07T13:45:29.897Z,55.47
2019-06-07T13:47:09.512Z,55.73
2019-06-07T13:48:49.117Z,54.78
2019-06-07T13:50:30.385Z,54.34
2019-06-07T13:52:10.094Z,53.87
2019-06-07T13:53:49.749Z,53.1
2019-06-07T13:55:29.694Z,54.23
2019-06-07T13:57:09.214Z,55.04
2019-06-07T13:58:48.961Z,55.8
2019-06-07T14:00:28.522Z,56.99
2019-06-07T14:02:08.163Z,57.51
2019-06-07T14:03:47.810Z,57.12
2019-06-07T14:05:29.152Z,56.8
2019-06-07T14:07:08.829Z,55.7
2019-06-07T14:08:48.622Z,55.51
2019-06-07T14:10:29.609Z,56.2
2019-06-07T14:12:09.309Z,57
2019-06-07T14:13:49.217Z,57.41
2019-06-07T14:15:33.781Z,57.64
2019-06-07T14:17:13.800Z,56.03
2019-06-07T14:18:53.503Z,55.34
2019-06-07T14:20:36.265Z,55.23
2019-06-07T14:22:15.795Z,55.7
2019-06-07T14:23:59.134Z,56.57
2019-06-07T14:25:40.489Z,56.78
2019-06-07T14:27:23.400Z,57.8
2019-06-07T14:29:04.361Z,57.8
2019-06-07T14:30:46.826Z,58.01
2019-06-07T14:32:32.712Z,59.02
2019-06-07T14:34:18.697Z,59.45
2019-06-07T14:36:06.392Z,60.11
2019-06-07T14:37:53.654Z,61.04
2019-06-07T14:39:43.378Z,60.64
2019-06-07T14:41:33.293Z,61.23
2019-06-07T14:43:19.230Z,62.21
2019-06-07T14:45:08.576Z,62.82
2019-06-07T14:46:53.005Z,63.4
2019-06-07T14:48:40.443Z,63.46
2019-06-07T14:50:28.143Z,63.56
2019-06-07T14:52:13.932Z,63.85
2019-06-07T14:54:06.556Z,64.08
2019-06-07T14:55:54.363Z,64.68
2019-06-07T14:57:39.777Z,64.69
2019-06-07T14:59:24.140Z,64.83
2019-06-07T15:01:11.199Z,65.1
2019-06-07T15:02:58.253Z,65.01
2019-06-07T15:04:50.883Z,66.48
2019-06-07T15:06:39.287Z,66.82
2019-06-07T15:08:23.864Z,67.72
2019-06-07T15:11:57.822Z,63.89
2019-06-07T15:13:39.857Z,65.75
2019-06-07T15:15:21.767Z,68.39
2019-06-07T15:17:04.829Z,73.06
2019-06-07T15:18:46.901Z,77.02
2019-06-07T15:20:27.750Z,82.58
2019-06-07T15:22:17.733Z,86.9
2019-06-07T15:23:57.126Z,88.6
2019-06-07T15:25:36.677Z,91.14
2019-06-07T15:27:29.079Z,96.37
2019-06-07T15:29:09.637Z,100.05
2019-06-07T15:30:49.349Z,97.71
2019-06-07T15:32:30.582Z,96.47
2019-06-07T15:34:13.554Z,97.56
2019-06-07T15:35:53.090Z,95.75
2019-06-07T15:37:34.565Z,97.42
2019-06-07T15:39:17.968Z,98.19
2019-06-07T15:40:57.475Z,100.81
2019-06-07T15:42:53.003Z,97.76
2019-06-07T15:44:33.305Z,96.65
2019-06-07T15:46:23.175Z,95.95
2019-06-07T15:48:02.889Z,92.21
2019-06-07T15:49:42.695Z,91.27
2019-06-07T15:51:22.487Z,92.77
2019-06-07T15:53:02.332Z,91.1
2019-06-07T15:54:42.478Z,85.81
2019-06-07T15:56:23.327Z,87.55
2019-06-07T15:58:02.953Z,85.64
2019-06-07T15:59:43.303Z,83.01
2019-06-07T16:01:22.808Z,81.38
2019-06-07T16:03:02.463Z,80.2
2019-06-07T16:04:43.922Z,78.98
2019-06-07T16:06:23.611Z,78.82
2019-06-07T16:08:03.327Z,78.22
2019-06-07T16:09:44.678Z,78.53
2019-06-07T16:11:24.434Z,78.16
2019-06-07T16:13:04.357Z,77.95
2019-06-07T16:14:45.344Z,76.02
2019-06-07T16:16:25.065Z,74.68
2019-06-07T16:18:05.746Z,75.07
2019-06-07T16:19:48.215Z,72.74
2019-06-07T16:21:27.722Z,71.35
2019-06-07T16:23:07.406Z,70.56
2019-06-07T16:24:47.724Z,70.44
2019-06-07T16:26:27.668Z,70.61
2019-06-07T16:28:07.265Z,68.71
2019-06-07T16:29:46.972Z,70.24
2019-06-07T16:31:26.573Z,65.74
2019-06-07T16:33:06.167Z,69.25
2019-06-07T16:34:47.024Z,68.93
2019-06-07T16:38:12.031Z,69.01
2019-06-07T16:39:51.655Z,69.26
2019-06-07T16:41:31.344Z,68.8
2019-06-07T16:43:19.718Z,68.12
2019-06-07T16:44:59.529Z,69.13
2019-06-07T16:46:40.675Z,69.84
2019-06-07T16:48:24.703Z,70.3
2019-06-07T16:50:04.279Z,66.18
2019-06-07T16:51:45.341Z,70
2019-06-07T16:53:30.998Z,71.32
2019-06-07T16:55:10.570Z,65.92
2019-06-07T16:56:53.050Z,69.4
2019-06-07T16:58:32.751Z,70.95
2019-06-07T17:00:12.311Z,67.12
2019-06-07T17:01:52.146Z,70.68
2019-06-07T17:03:32.725Z,67.39
2019-06-07T17:05:13.549Z,71.31
2019-06-07T17:06:56.096Z,67.76
2019-06-07T17:08:35.791Z,70.34
2019-06-07T17:10:16.701Z,66.85
2019-06-07T17:11:56.331Z,70.49
2019-06-07T17:13:36.041Z,67.22
2019-06-07T17:15:16.783Z,70.71
2019-06-07T17:16:56.427Z,67.08
2019-06-07T17:18:40.656Z,70.75
2019-06-07T17:20:27.073Z,67.25
2019-06-07T17:22:06.605Z,66.18
2019-06-07T17:23:47.376Z,70.41
2019-06-07T17:25:27.409Z,67.64
2019-06-07T17:27:07.013Z,71.22
2019-06-07T17:28:47.774Z,68.01
2019-06-07T17:30:34.153Z,72.05
2019-06-07T17:32:17.732Z,68.1
2019-06-07T17:33:57.402Z,72.06
2019-06-07T17:35:36.963Z,68.38
2019-06-07T17:37:19.913Z,72.14
2019-06-07T17:38:59.424Z,68.89
2019-06-07T17:40:40.711Z,71.64
2019-06-07T17:42:21.410Z,68.58
2019-06-07T17:44:02.273Z,72.28
2019-06-07T17:45:43.437Z,68.49
2019-06-07T17:47:24.140Z,72.21
2019-06-07T17:49:04.044Z,68.82
2019-06-07T17:50:43.780Z,71.99
2019-06-07T17:52:32.576Z,68.61
2019-06-07T17:54:12.273Z,68.06
2019-06-07T17:55:57.009Z,72.06
2019-06-07T17:57:44.437Z,68.24
2019-06-07T17:59:31.149Z,72.07
2019-06-07T18:01:40.884Z,68.69
2019-06-07T18:03:53.188Z,73.77
2019-06-07T18:05:33.024Z,69.41
2019-06-07T18:07:12.555Z,73.81
2019-06-07T18:10:34.010Z,70.49
2019-06-07T18:12:13.547Z,69.89
2019-06-07T18:14:12.479Z,75.34
2019-06-07T18:15:59.546Z,72.07
2019-06-07T18:17:39.390Z,71.9
2019-06-07T18:19:18.547Z,71.96
2019-06-07T18:20:58.447Z,71.07
2019-06-07T18:22:38.149Z,71.07
2019-06-07T18:24:17.920Z,71.16
2019-06-07T18:25:58.824Z,69.91
2019-06-07T18:27:38.610Z,74.44
2019-06-07T18:29:18.252Z,70.36
2019-06-07T18:30:59.262Z,69.55
2019-06-07T18:32:39.125Z,73.54
2019-06-07T18:34:30.083Z,70.19
2019-06-07T18:36:09.597Z,69.17
2019-06-07T18:37:51.147Z,73.13
2019-06-07T18:39:31.625Z,69.27
2019-06-07T18:41:11.494Z,72.09
2019-06-07T18:42:51.330Z,68.41
2019-06-07T18:44:31.791Z,71.89
2019-06-07T18:46:11.481Z,68.47
2019-06-07T18:47:51.458Z,71.74
2019-06-07T18:49:32.089Z,67.88
2019-06-07T18:51:14.079Z,71.55
2019-06-07T18:52:54.857Z,68.02
2019-06-07T18:54:35.523Z,71.33
2019-06-07T18:56:15.233Z,68.1
2019-06-07T18:57:56.532Z,71.29
2019-06-07T18:59:43.163Z,68.13
2019-06-07T19:01:24.774Z,67.07
2019-06-07T19:03:05.644Z,70.88
2019-06-07T19:04:45.482Z,67.59
2019-06-07T19:06:27.152Z,71.47
2019-06-07T19:08:06.789Z,68.25
2019-06-07T19:09:46.399Z,71.53
2019-06-07T19:11:26.972Z,68.22
2019-06-07T19:13:07.755Z,71.4
2019-06-07T19:14:47.602Z,68.01
2019-06-07T19:16:28.074Z,71.42
2019-06-07T19:18:20.090Z,67.91
2019-06-07T19:20:00.625Z,66.89
2019-06-07T19:21:40.835Z,70.89
2019-06-07T19:23:20.406Z,67.21
2019-06-07T19:25:00.537Z,70.21
2019-06-07T19:26:40.355Z,66.72
2019-06-07T19:30:03.446Z,70.9
2019-06-07T19:31:43.059Z,66.83
2019-06-07T19:33:22.261Z,70.19
2019-06-07T19:35:03.417Z,66.92
2019-06-07T19:36:51.456Z,70.15
2019-06-07T19:38:32.004Z,66.38
2019-06-07T19:40:11.877Z,69.84
2019-06-07T19:41:51.853Z,70.67
2019-06-07T19:43:36.363Z,66.59
2019-06-07T19:45:31.968Z,69.61
2019-06-07T19:47:12.668Z,70.33
2019-06-07T19:48:54.507Z,66.26
2019-06-07T19:50:35.024Z,69.43
2019-06-07T19:52:14.633Z,70.32
2019-06-07T19:53:54.957Z,66.3
2019-06-07T19:55:35.545Z,69.5
2019-06-07T19:57:15.215Z,70.32
2019-06-07T19:58:55.550Z,66.36
2019-06-07T20:00:36.209Z,69.74
2019-06-07T20:02:16.090Z,70.32
2019-06-07T20:03:57.998Z,66.63
2019-06-07T20:05:38.907Z,69.81
2019-06-07T20:07:18.728Z,70.58
2019-06-07T20:08:58.726Z,66.7
2019-06-07T20:10:39.308Z,70
2019-06-07T20:12:18.969Z,66.65
2019-06-07T20:13:58.808Z,70.1
2019-06-07T20:15:43.235Z,66.97
2019-06-07T20:17:31.481Z,70.58
2019-06-07T20:19:19.222Z,67.04
2019-06-07T20:21:10.556Z,70.91
2019-06-07T20:23:05.072Z,67.3
2019-06-07T20:25:03.055Z,71.13
2019-06-07T20:26:56.249Z,67.48
2019-06-07T20:28:36.814Z,71.49
2019-06-07T20:32:17.215Z,71.96
2019-06-07T20:34:13.930Z,68.25
2019-06-07T20:36:30.574Z,72.32
2019-06-07T20:38:44.745Z,68.11
2019-06-07T20:41:05.462Z,72.64
2019-06-07T20:43:55.453Z,68.07
2019-06-07T20:45:46.842Z,72.52
2019-06-07T20:47:34.406Z,68.87
2019-06-07T20:49:23.628Z,72.8
2019-06-07T20:51:14.797Z,68.97
2019-06-07T20:53:09.010Z,72.74
2019-06-07T20:55:05.332Z,68.87
2019-06-07T20:57:10.223Z,72.82
2019-06-07T20:59:09.056Z,68.76
2019-06-07T21:01:00.582Z,72.89
2019-06-07T21:02:50.605Z,69.16
2019-06-07T21:04:40.341Z,72.96
2019-06-07T21:06:29.496Z,69.15
2019-06-07T21:08:18.476Z,72.81
2019-06-07T21:10:17.259Z,68.97
2019-06-07T21:12:42.866Z,72.9
2019-06-07T21:14:53.415Z,68.71
2019-06-07T21:16:32.996Z,67.84
2019-06-07T21:18:28.947Z,71.94
2019-06-07T21:20:16.115Z,68.58
2019-06-07T21:21:58.905Z,67.78
2019-06-07T21:23:44.539Z,72.15
2019-06-07T21:25:27.375Z,68.76
2019-06-07T21:27:14.218Z,72.25
2019-06-07T21:28:56.468Z,68.63
2019-06-07T21:30:38.465Z,72.27
2019-06-07T21:32:19.019Z,68.81
2019-06-07T21:33:58.636Z,72.31
2019-06-07T21:35:41.924Z,68.83
2019-06-07T21:37:21.673Z,72.36
2019-06-07T21:39:01.959Z,68.8
2019-06-07T21:40:42.349Z,72.29
2019-06-07T21:42:21.789Z,68.9
2019-06-07T21:44:02.364Z,72.42
2019-06-07T21:45:42.610Z,69.05
2019-06-07T21:47:22.265Z,72.61
2019-06-07T21:49:02.196Z,69.2
2019-06-07T21:50:42.711Z,72.72
2019-06-07T21:52:22.405Z,69.46
2019-06-07T21:54:02.545Z,73.09
2019-06-07T21:55:59.229Z,69.42
2019-06-07T21:57:39.298Z,68.78
2019-06-07T21:59:18.876Z,72.82
2019-06-07T22:00:58.405Z,69.42
2019-06-07T22:02:40.499Z,73.05
2019-06-07T22:04:20.069Z,69.42
2019-06-07T22:05:59.609Z,72.9
2019-06-07T22:07:39.700Z,69.42
2019-06-07T22:09:19.269Z,72.93
2019-06-07T22:10:59.126Z,69.36
2019-06-07T22:12:40.187Z,72.9
2019-06-07T22:14:19.561Z,69.36
2019-06-07T22:15:59.103Z,72.95
2019-06-07T22:17:38.668Z,69.45
2019-06-07T22:19:18.186Z,72.92
2019-06-07T22:20:57.662Z,69.29
2019-06-07T22:22:37.239Z,72.64
2019-06-07T22:24:16.802Z,69.15
2019-06-07T22:25:56.365Z,72.43
2019-06-07T22:27:36.002Z,68.88
2019-06-07T22:29:16.175Z,72.48
2019-06-07T22:30:57.308Z,69.02
2019-06-07T22:32:36.878Z,72.83
2019-06-07T22:34:16.838Z,69.33
2019-06-07T22:35:57.218Z,72.57
2019-06-07T22:37:36.728Z,69.29
2019-06-07T22:39:17.900Z,73.02
2019-06-07T22:40:57.561Z,69.64
2019-06-07T22:42:37.299Z,73.6
2019-06-07T22:44:16.870Z,70.32
2019-06-07T22:45:57.288Z,69.87
2019-06-07T22:47:36.757Z,74.32
2019-06-07T22:49:17.060Z,71.03
2019-06-07T22:50:57.570Z,70.49
2019-06-07T22:52:37.053Z,70.5
2019-06-07T22:55:59.306Z,70.93
2019-06-07T22:57:38.827Z,70.67
2019-06-07T22:59:20.787Z,70.91
2019-06-07T23:01:00.413Z,70.96
2019-06-07T23:02:39.888Z,71
2019-06-07T23:04:21.068Z,71.19
2019-06-07T23:06:00.698Z,71.31
2019-06-07T23:07:40.242Z,71.45
2019-06-07T23:09:21.379Z,71.61
2019-06-07T23:11:00.895Z,71.75
2019-06-07T23:12:40.511Z,71.96
2019-06-07T23:14:21.484Z,72.14
2019-06-07T23:16:03.688Z,72.3
2019-06-07T23:17:43.309Z,72.48
2019-06-07T23:19:22.844Z,72.61
2019-06-07T23:21:02.266Z,72.73
2019-06-07T23:22:41.982Z,72.67
2019-06-07T23:24:23.146Z,72.45
2019-06-07T23:26:02.763Z,72.51
2019-06-07T23:27:42.314Z,72.61